Time;durP1;ratioP1;P1;durP2;ratioP2;P2;SDS_P1;SDS_P2;PMS_P1;PMS_P2;Temp;Humidity;BMP_temperature;BMP_pressure;BME280_temperature;BME280_humidity;BME280_pressure;Samples;Min_cycle;Max_cycle;Signal;HPM_P1;HPM_P2
2023/10/17 00:01:44;;;;;;;4.77;4.20;;;6.50;99.90;;;;;;5014504;28;20419;-70
2023/10/17 00:06:45;;;;;;;3.73;3.33;;;6.50;99.90;;;;;;5001245;28;20400;-70
2023/10/17 00:09:44;;;;;;;4.07;3.77;;;6.40;99.90;;;;;;5014406;28;20481;-70
2023/10/17 00:14:57;;;;;;;8.40;4.40;;;6.40;99.90;;;;;;5032326;28;20869;-69
2023/10/17 00:17:22;;;;;;;4.30;3.83;;;6.40;99.90;;;;;;5032047;28;20441;-69
2023/10/17 00:19:51;;;;;;;5.40;3.80;;;6.30;99.90;;;;;;5032258;28;20402;-69
2023/10/17 00:22:23;;;;;;;4.90;4.07;;;6.20;99.90;;;;;;5030957;28;20173;-70
2023/10/17 00:24:54;;;;;;;4.33;3.93;;;6.10;99.90;;;;;;5015673;28;20779;-70
2023/10/17 00:27:19;;;;;;;4.10;3.80;;;6.10;99.90;;;;;;4999179;28;20426;-68
2023/10/17 00:29:45;;;;;;;3.97;3.23;;;6.10;99.90;;;;;;5014319;28;20452;-70
2023/10/17 00:32:12;;;;;;;3.77;3.47;;;6.00;99.90;;;;;;5031720;28;20172;-69
2023/10/17 00:34:38;;;;;;;4.90;4.27;;;5.90;99.90;;;;;;5032219;28;20652;-70
2023/10/17 00:37:10;;;;;;;4.83;3.90;;;5.90;99.90;;;;;;5035555;28;20406;-69
2023/10/17 00:39:37;;;;;;;4.70;4.30;;;5.90;99.90;;;;;;5018991;28;20160;-69
2023/10/17 00:44:44;;;;;;;5.10;3.90;;;5.90;99.90;;;;;;5035444;28;20398;-69
2023/10/17 00:47:11;;;;;;;4.70;4.20;;;5.90;99.90;;;;;;5017517;28;20417;-69
2023/10/17 00:49:41;;;;;;;6.97;4.30;;;6.00;99.90;;;;;;5017421;28;20452;-69
2023/10/17 00:52:22;;;;;;;4.90;4.03;;;6.00;99.90;;;;;;5017241;28;20394;-70
2023/10/17 00:54:50;;;;;;;5.50;4.83;;;6.00;99.90;;;;;;5002856;28;20398;-70
2023/10/17 00:57:19;;;;;;;4.40;4.00;;;6.10;99.90;;;;;;5001198;28;20441;-69
2023/10/17 00:59:53;;;;;;;4.47;4.07;;;6.00;99.90;;;;;;5018591;28;20424;-69
2023/10/17 01:02:23;;;;;;;5.50;3.80;;;6.00;99.90;;;;;;5019317;28;20398;-69
2023/10/17 01:04:52;;;;;;;4.57;3.87;;;6.00;99.90;;;;;;5035289;28;20397;-70
2023/10/17 01:07:30;;;;;;;4.63;3.83;;;6.00;99.90;;;;;;5018097;28;20904;-69
2023/10/17 01:10:09;;;;;;;6.20;4.83;;;6.00;99.90;;;;;;5035555;28;20430;-68
2023/10/17 01:12:36;;;;;;;4.50;4.10;;;5.90;99.90;;;;;;5019289;28;20940;-69
2023/10/17 01:15:02;;;;;;;7.47;4.70;;;5.90;99.90;;;;;;5017332;28;20497;-70
2023/10/17 01:17:29;;;;;;;8.57;4.23;;;5.80;99.90;;;;;;5000420;28;20537;-70
2023/10/17 01:20:07;;;;;;;5.23;4.10;;;5.80;99.90;;;;;;5016462;28;20168;-70
2023/10/17 01:22:33;;;;;;;4.93;4.10;;;5.80;99.90;;;;;;5034493;28;20406;-69
2023/10/17 01:25:06;;;;;;;5.10;4.60;;;5.80;99.90;;;;;;5016393;28;20422;-69
2023/10/17 01:27:32;;;;;;;3.57;3.20;;;5.80;99.90;;;;;;5034193;28;20229;-69
2023/10/17 01:29:59;;;;;;;5.80;4.37;;;5.80;99.90;;;;;;5033078;28;20431;-70
2023/10/17 01:32:27;;;;;;;5.97;4.70;;;5.70;99.90;;;;;;5034370;28;20168;-69
2023/10/17 01:34:52;;;;;;;6.10;5.10;;;5.70;99.90;;;;;;5016093;28;20448;-69
2023/10/17 01:37:19;;;;;;;4.60;3.73;;;5.70;99.90;;;;;;5016099;28;20921;-69
2023/10/17 01:39:45;;;;;;;5.60;5.10;;;5.70;99.90;;;;;;5034230;28;20222;-69
2023/10/17 01:42:11;;;;;;;4.77;4.27;;;5.70;99.90;;;;;;5016057;28;20791;-69
2023/10/17 01:44:37;;;;;;;4.83;4.33;;;5.70;99.90;;;;;;5033945;28;20182;-68
2023/10/17 01:47:07;;;;;;;4.60;3.87;;;5.70;99.90;;;;;;5015133;28;20418;-69
2023/10/17 01:49:33;;;;;;;4.50;3.97;;;5.70;99.90;;;;;;5034052;28;20187;-70
2023/10/17 01:51:59;;;;;;;5.50;5.00;;;5.60;99.90;;;;;;5033661;28;20491;-69
2023/10/17 01:54:25;;;;;;;4.67;4.27;;;5.50;99.90;;;;;;5034113;28;20546;-69
2023/10/17 01:56:51;;;;;;;4.50;4.10;;;5.40;99.90;;;;;;5032829;28;20663;-69
2023/10/17 01:59:25;;;;;;;8.33;4.60;;;5.40;99.90;;;;;;5032254;28;20442;-70
2023/10/17 02:01:56;;;;;;;6.73;4.40;;;5.40;99.90;;;;;;5033804;28;20162;-68
2023/10/17 02:04:23;;;;;;;4.67;4.27;;;5.40;99.90;;;;;;5016733;28;20398;-70
2023/10/17 02:06:50;;;;;;;5.23;3.93;;;5.50;99.90;;;;;;4999542;28;20967;-70
2023/10/17 02:12:00;;;;;;;6.63;4.23;;;5.60;99.90;;;;;;5033918;28;20394;-69
2023/10/17 02:14:26;;;;;;;5.13;4.53;;;5.50;99.90;;;;;;5032793;28;20459;-68
2023/10/17 02:16:52;;;;;;;5.83;4.03;;;5.50;99.90;;;;;;5033621;28;20403;-68
2023/10/17 02:19:22;;;;;;;4.27;3.87;;;5.40;99.90;;;;;;5000214;28;20777;-69
2023/10/17 02:21:54;;;;;;;4.63;4.00;;;5.40;99.90;;;;;;5015437;28;20419;-70
2023/10/17 02:24:20;;;;;;;7.53;4.70;;;5.30;99.90;;;;;;5034091;28;20766;-69
2023/10/17 02:26:56;;;;;;;4.43;4.03;;;5.30;99.90;;;;;;5033111;28;20414;-69
2023/10/17 02:29:26;;;;;;;5.00;3.87;;;5.30;99.90;;;;;;5016787;28;20241;-68
2023/10/17 02:31:53;;;;;;;4.07;3.77;;;5.20;99.90;;;;;;5015553;28;20406;-69
2023/10/17 02:34:22;;;;;;;4.30;3.93;;;5.20;99.90;;;;;;5015658;28;20413;-69
2023/10/17 02:36:55;;;;;;;7.20;3.93;;;5.30;99.90;;;;;;5033327;28;20418;-69
2023/10/17 02:39:20;;;;;;;5.07;4.57;;;5.30;99.90;;;;;;5031994;28;20495;-69
2023/10/17 02:42:08;;;;;;;4.30;3.90;;;5.30;99.90;;;;;;5013986;28;20493;-69
2023/10/17 02:44:34;;;;;;;4.93;3.40;;;5.40;99.90;;;;;;4995367;28;20179;-68
2023/10/17 02:47:01;;;;;;;5.87;4.27;;;5.40;99.90;;;;;;5012805;28;20415;-70
2023/10/17 02:49:33;;;;;;;4.30;3.90;;;5.30;99.90;;;;;;4995294;28;20457;-69
2023/10/17 02:52:02;;;;;;;5.20;4.70;;;5.30;99.90;;;;;;5015000;28;20402;-69
2023/10/17 02:54:28;;;;;;;4.07;3.77;;;5.40;99.90;;;;;;5014770;28;20993;-69
2023/10/17 02:56:54;;;;;;;5.60;4.63;;;5.40;99.90;;;;;;5032605;28;20437;-70
2023/10/17 02:59:21;;;;;;;6.17;3.93;;;5.50;99.90;;;;;;5032339;28;20569;-69
2023/10/17 03:01:53;;;;;;;4.03;3.63;;;5.40;99.90;;;;;;5015413;28;20179;-70
2023/10/17 03:04:23;;;;;;;5.23;4.33;;;5.40;99.90;;;;;;4980606;28;20436;-70
2023/10/17 03:06:54;;;;;;;5.97;4.00;;;5.40;99.90;;;;;;4996301;28;20395;-69
2023/10/17 03:17:02;;;;;;;5.73;4.60;;;5.30;99.90;;;;;;5012688;28;20736;-70
2023/10/17 03:19:28;;;;;;;4.03;3.63;;;5.30;99.90;;;;;;4995024;28;20414;-69
2023/10/17 03:21:54;;;;;;;4.93;4.43;;;5.40;99.90;;;;;;4994983;28;20168;-70
2023/10/17 03:24:28;;;;;;;4.87;4.37;;;5.50;99.90;;;;;;5014823;28;20172;-68
2023/10/17 03:26:55;;;;;;;5.13;4.63;;;5.50;99.90;;;;;;4984379;28;20769;-69
2023/10/17 03:29:23;;;;;;;5.27;4.77;;;5.40;99.90;;;;;;4998635;28;20437;-68
2023/10/17 03:32:03;;;;;;;6.00;4.73;;;5.50;99.90;;;;;;4998364;28;20418;-68
2023/10/17 03:34:35;;;;;;;7.20;4.73;;;5.60;99.90;;;;;;5002561;28;20399;-68
2023/10/17 03:39:57;;;;;;;5.20;4.70;;;5.70;99.90;;;;;;5017442;28;20402;-68
2023/10/17 03:43:00;;;;;;;5.00;4.20;;;5.70;99.90;;;;;;4998352;28;20398;-69
2023/10/17 03:45:23;;;;;;;4.00;3.60;;;5.80;99.90;;;;;;5029051;28;20411;-69
2023/10/17 03:47:56;;;;;;;4.53;4.03;;;5.90;99.90;;;;;;5031929;28;20457;-68
2023/10/17 03:50:31;;;;;;;4.30;3.90;;;5.90;99.90;;;;;;5015462;28;20434;-67
2023/10/17 03:53:05;;;;;;;6.80;4.80;;;6.00;99.90;;;;;;5032275;28;20508;-69
2023/10/17 03:55:32;;;;;;;5.27;4.40;;;6.00;99.90;;;;;;5031913;28;20386;-68
2023/10/17 03:57:59;;;;;;;5.23;4.70;;;6.00;99.90;;;;;;5014255;28;20454;-68
2023/10/17 04:00:28;;;;;;;4.57;4.10;;;6.00;99.90;;;;;;5014595;28;20422;-69
2023/10/17 04:02:53;;;;;;;4.13;3.73;;;6.00;99.90;;;;;;4986149;28;20508;-69
2023/10/17 04:05:23;;;;;;;5.27;4.77;;;6.00;99.90;;;;;;5014099;28;20843;-67
2023/10/17 04:07:52;;;;;;;5.20;4.70;;;6.00;99.90;;;;;;5030892;28;20199;-68
2023/10/17 04:13:12;;;;;;;4.50;4.10;;;6.10;99.90;;;;;;5034768;28;20730;-68
2023/10/17 04:15:35;;;;;;;8.57;4.87;;;6.10;99.90;;;;;;5021703;28;20407;-68
2023/10/17 04:18:02;;;;;;;5.20;4.63;;;6.00;99.90;;;;;;5035641;28;20500;-68
2023/10/17 04:20:30;;;;;;;9.63;4.70;;;6.10;99.90;;;;;;5018128;28;20168;-69
2023/10/17 04:22:56;;;;;;;5.90;3.63;;;6.10;99.90;;;;;;5022297;28;20418;-69
2023/10/17 04:25:34;;;;;;;6.40;3.77;;;6.00;99.90;;;;;;5036035;28;20405;-69
2023/10/17 04:28:01;;;;;;;5.27;4.60;;;6.00;99.90;;;;;;5017727;28;20859;-68
2023/10/17 04:30:35;;;;;;;4.73;4.33;;;6.00;99.90;;;;;;5034489;28;20536;-67
2023/10/17 04:33:20;;;;;;;5.50;4.67;;;6.10;99.90;;;;;;5034336;28;20442;-68
2023/10/17 04:35:53;;;;;;;3.83;3.53;;;6.20;99.90;;;;;;5004422;28;20771;-69
2023/10/17 04:38:19;;;;;;;7.47;4.93;;;6.20;99.90;;;;;;5035458;28;20429;-70
2023/10/17 04:43:54;;;;;;;6.17;5.00;;;6.30;99.90;;;;;;5021062;28;20528;-68
2023/10/17 04:46:25;;;;;;;6.10;5.20;;;6.30;99.90;;;;;;5002479;28;20741;-68
2023/10/17 04:48:52;;;;;;;5.90;5.30;;;6.30;99.90;;;;;;5018243;28;20465;-67
2023/10/17 04:53:48;;;;;;;5.80;5.30;;;6.30;99.90;;;;;;5017720;28;20421;-67
2023/10/17 04:56:18;;;;;;;5.57;5.07;;;6.30;99.90;;;;;;5035158;28;20846;-67
2023/10/17 05:01:36;;;;;;;5.77;4.70;;;6.40;99.90;;;;;;5034730;28;20727;-68
2023/10/17 05:04:19;;;;;;;5.47;4.97;;;6.50;99.90;;;;;;5035267;28;20402;-69
2023/10/17 06:17:53;;;;;;;7.07;6.37;;;7.10;99.90;;;;;;5033544;28;20422;-68
2023/10/17 06:20:43;;;;;;;5.70;5.10;;;7.20;99.90;;;;;;5015317;28;20438;-68
2023/10/17 06:23:23;;;;;;;7.37;5.90;;;7.30;99.90;;;;;;5033000;28;20446;-69
2023/10/17 06:28:34;;;;;;;5.83;5.20;;;7.30;99.90;;;;;;5031993;28;20743;-69
2023/10/17 06:31:34;;;;;;;6.60;5.90;;;7.30;99.90;;;;;;5032296;28;20243;-69
2023/10/17 06:34:00;;;;;;;5.50;4.90;;;7.40;99.90;;;;;;5031628;28;20413;-69
2023/10/17 06:36:28;;;;;;;5.47;4.87;;;7.40;99.90;;;;;;5015384;28;20423;-68
2023/10/17 06:38:54;;;;;;;10.27;7.00;;;7.40;99.90;;;;;;5016165;28;20506;-70
2023/10/17 06:41:37;;;;;;;8.00;6.13;;;7.50;99.90;;;;;;4999427;28;20538;-68
2023/10/17 06:44:05;;;;;;;5.37;4.87;;;7.50;99.90;;;;;;5026849;28;20430;-69
2023/10/17 06:46:40;;;;;;;7.67;6.37;;;7.50;99.90;;;;;;5015047;28;20465;-68
2023/10/17 06:49:08;;;;;;;7.10;5.17;;;7.50;99.90;;;;;;5030677;28;20803;-69
2023/10/17 06:51:39;;;;;;;7.03;5.90;;;7.50;99.90;;;;;;5031911;28;20483;-69
2023/10/17 06:54:06;;;;;;;5.73;5.13;;;7.60;99.90;;;;;;5009753;28;20405;-69
2023/10/17 06:56:38;;;;;;;6.80;6.07;;;7.60;99.90;;;;;;5032653;28;20478;-70
2023/10/17 06:59:05;;;;;;;6.97;6.20;;;7.70;99.90;;;;;;5032908;28;20879;-70
2023/10/17 07:01:34;;;;;;;7.50;6.13;;;7.80;99.90;;;;;;5032391;28;20444;-71
2023/10/17 07:04:02;;;;;;;6.33;5.73;;;8.00;99.90;;;;;;5032367;28;20411;-71
2023/10/17 07:06:29;;;;;;;7.33;6.67;;;8.10;99.90;;;;;;5032425;28;20906;-70
2023/10/17 07:08:54;;;;;;;7.30;6.20;;;8.20;99.90;;;;;;5014865;28;20465;-70
2023/10/17 07:16:33;;;;;;;9.03;8.20;;;8.30;99.90;;;;;;5031242;28;20174;-70
2023/10/17 07:19:16;;;;;;;8.73;8.00;;;8.30;99.90;;;;;;5032427;28;20435;-69
2023/10/17 07:22:15;;;;;;;9.03;7.53;;;8.40;99.90;;;;;;5032182;28;20975;-70
2023/10/17 07:24:43;;;;;;;8.70;7.07;;;8.50;99.90;;;;;;5029257;28;20432;-70
2023/10/17 07:27:12;;;;;;;9.60;7.33;;;8.50;99.90;;;;;;5016106;28;20384;-70
2023/10/17 07:29:45;;;;;;;10.53;8.03;;;8.50;99.90;;;;;;5014753;28;20506;-70
2023/10/17 07:32:16;;;;;;;9.70;7.07;;;8.70;99.90;;;;;;5032217;28;20436;-68
2023/10/17 07:34:43;;;;;;;9.20;7.90;;;8.80;99.90;;;;;;5014469;28;20813;-69
2023/10/17 07:37:25;;;;;;;8.33;7.50;;;8.90;99.90;;;;;;5032078;28;20405;-69
2023/10/17 07:40:31;;;;;;;8.13;7.10;;;8.50;99.90;;;;;;5031480;28;20480;-71
2023/10/17 07:42:45;;;;;;;8.57;7.77;;;8.40;99.90;;;;;;5030069;28;20440;-69
2023/10/17 07:45:14;;;;;;;7.37;6.67;;;8.30;99.90;;;;;;5014446;28;20418;-72
2023/10/17 07:47:41;;;;;;;7.93;6.37;;;8.40;99.90;;;;;;5013998;28;20433;-70
2023/10/17 07:50:12;;;;;;;8.30;7.60;;;8.60;99.90;;;;;;5031895;28;20492;-69
2023/10/17 07:52:43;;;;;;;9.17;7.37;;;8.70;99.90;;;;;;5015248;28;20932;-71
2023/10/17 07:55:18;;;;;;;8.90;8.03;;;8.80;99.90;;;;;;5032342;28;20397;-70
2023/10/17 07:57:51;;;;;;;8.90;7.30;;;8.80;99.90;;;;;;5031922;28;20448;-69
2023/10/17 08:03:15;;;;;;;8.47;7.67;;;9.30;99.90;;;;;;4977823;28;20417;-71
2023/10/17 08:05:54;;;;;;;7.23;6.53;;;9.60;99.90;;;;;;5014619;28;20568;-69
2023/10/17 08:08:22;;;;;;;7.90;7.10;;;9.70;99.90;;;;;;4999293;28;20195;-70
2023/10/17 08:10:48;;;;;;;10.20;9.10;;;9.90;99.90;;;;;;5032291;28;20443;-70
2023/10/17 08:13:15;;;;;;;11.87;9.90;;;10.00;99.90;;;;;;5030658;28;20494;-70
2023/10/17 08:15:52;;;;;;;9.87;8.93;;;9.70;99.90;;;;;;5032171;28;20406;-69
2023/10/17 08:18:22;;;;;;;10.27;9.27;;;9.20;99.90;;;;;;5032065;28;20493;-69
2023/10/17 08:23:26;;;;;;;9.93;8.80;;;9.30;99.90;;;;;;5032113;28;20783;-70
2023/10/17 08:26:10;;;;;;;11.00;9.87;;;9.50;99.90;;;;;;5014515;28;20410;-70
2023/10/17 08:33:57;;;;;;;11.20;9.73;;;9.70;99.90;;;;;;5031990;28;20488;-69
2023/10/17 08:42:00;;;;;;;11.60;10.40;;;9.80;99.90;;;;;;5001161;28;20867;-69
2023/10/17 08:44:29;;;;;;;10.80;9.33;;;9.90;99.90;;;;;;5030460;28;20496;-70
2023/10/17 08:46:58;;;;;;;11.00;9.80;;;10.10;99.90;;;;;;5030692;28;20493;-68
2023/10/17 08:49:27;;;;;;;13.43;10.90;;;10.10;99.90;;;;;;5030892;28;20573;-69
2023/10/17 08:51:56;;;;;;;11.57;9.90;;;10.00;99.90;;;;;;5031066;28;20410;-70
2023/10/17 08:54:25;;;;;;;12.00;9.90;;;9.80;99.90;;;;;;5013115;28;20525;-70
2023/10/17 08:56:51;;;;;;;11.50;10.30;;;10.00;99.90;;;;;;5002866;28;20398;-68
2023/10/17 09:02:03;;;;;;;11.73;10.17;;;10.40;99.90;;;;;;4984956;28;20423;-68
2023/10/17 09:04:32;;;;;;;12.40;11.10;;;10.40;99.90;;;;;;5034548;28;20474;-69
2023/10/17 09:07:08;;;;;;;14.83;10.40;;;10.50;99.90;;;;;;5034745;28;20439;-68
2023/10/17 09:09:34;;;;;;;12.37;11.00;;;10.70;99.90;;;;;;5033119;28;20431;-68
2023/10/17 09:12:01;;;;;;;14.33;11.87;;;10.90;99.90;;;;;;5016488;28;20423;-69
2023/10/17 09:14:29;;;;;;;13.00;10.67;;;11.00;99.90;;;;;;5034308;28;20402;-68
2023/10/17 09:17:10;;;;;;;13.70;10.70;;;11.00;99.90;;;;;;5033314;28;20417;-69
2023/10/17 09:19:46;;;;;;;12.53;11.23;;;11.00;99.90;;;;;;5034276;28;20394;-68
2023/10/17 09:22:16;;;;;;;13.70;11.03;;;11.00;99.90;;;;;;5016320;28;20893;-69
2023/10/17 09:24:48;;;;;;;11.60;10.50;;;10.90;99.90;;;;;;5016280;28;20464;-68
2023/10/17 09:27:14;;;;;;;13.03;11.03;;;10.90;99.90;;;;;;5032889;28;20868;-68
2023/10/17 09:29:47;;;;;;;12.67;11.13;;;11.30;99.90;;;;;;5032826;28;20512;-68
2023/10/17 09:32:31;;;;;;;11.73;9.90;;;11.00;99.90;;;;;;5032818;28;20420;-69
2023/10/17 09:34:57;;;;;;;12.07;10.77;;;11.30;99.90;;;;;;5034104;28;20497;-69
2023/10/17 09:37:27;;;;;;;12.67;11.33;;;11.50;99.90;;;;;;5015985;28;20430;-68
2023/10/17 09:39:54;;;;;;;12.60;11.10;;;11.50;99.90;;;;;;5015985;28;20414;-68
2023/10/17 09:42:20;;;;;;;12.63;11.30;;;11.60;99.90;;;;;;5032541;28;20418;-69
2023/10/17 09:44:46;;;;;;;11.63;10.43;;;11.70;99.90;;;;;;5032177;28;20419;-68
2023/10/17 09:47:16;;;;;;;11.47;10.27;;;11.90;99.90;;;;;;5033718;28;20199;-69
2023/10/17 09:49:44;;;;;;;11.57;10.37;;;12.30;99.90;;;;;;5015870;28;20209;-69
2023/10/17 09:52:10;;;;;;;16.27;12.60;;;12.60;99.90;;;;;;5033756;28;20423;-68
2023/10/17 09:54:41;;;;;;;11.93;10.63;;;12.00;99.90;;;;;;5016018;28;20398;-69
2023/10/17 09:57:14;;;;;;;11.67;10.47;;;11.60;99.90;;;;;;5032624;28;20458;-69
2023/10/17 09:59:50;;;;;;;12.10;10.80;;;11.50;99.90;;;;;;5033892;28;20399;-67
2023/10/17 10:02:20;;;;;;;13.03;11.73;;;12.00;99.90;;;;;;5033835;28;20405;-69
2023/10/17 10:04:46;;;;;;;12.60;11.03;;;12.00;99.90;;;;;;5033388;28;20460;-68
2023/10/17 10:07:23;;;;;;;12.97;10.90;;;11.90;99.90;;;;;;5031257;28;20427;-69
2023/10/17 10:09:48;;;;;;;13.90;11.73;;;12.00;99.90;;;;;;5030734;28;20441;-69
2023/10/17 10:12:14;;;;;;;13.37;11.50;;;12.00;99.90;;;;;;5033157;28;20524;-69
2023/10/17 10:14:42;;;;;;;12.80;11.50;;;12.30;99.90;;;;;;5032177;28;20175;-68
2023/10/17 10:17:09;;;;;;;13.83;11.43;;;12.50;99.90;;;;;;5033301;28;20175;-69
2023/10/17 10:19:41;;;;;;;12.47;11.13;;;12.60;99.90;;;;;;5015070;28;20915;-69
2023/10/17 10:22:08;;;;;;;13.23;11.83;;;12.50;99.90;;;;;;5015157;28;20438;-68
2023/10/17 10:24:36;;;;;;;13.33;11.60;;;12.60;99.90;;;;;;5031617;28;20595;-69
2023/10/17 10:27:24;;;;;;;16.00;12.93;;;12.70;99.90;;;;;;5031928;28;20492;-69
2023/10/17 10:29:54;;;;;;;13.27;11.27;;;12.70;99.90;;;;;;5033229;28;20846;-69
2023/10/17 10:32:32;;;;;;;11.30;10.10;;;13.10;99.90;;;;;;5032005;28;20848;-69
2023/10/17 10:34:58;;;;;;;13.63;11.83;;;12.90;99.90;;;;;;5031829;28;20419;-69
2023/10/17 10:37:24;;;;;;;14.70;11.97;;;13.10;99.90;;;;;;5032688;28;20432;-69
2023/10/17 10:40:12;;;;;;;14.63;12.10;;;13.10;99.90;;;;;;5015037;28;20176;-71
2023/10/17 10:42:45;;;;;;;15.37;12.40;;;12.90;99.90;;;;;;5032926;28;20394;-69
2023/10/17 10:45:31;;;;;;;14.17;12.17;;;12.70;99.90;;;;;;5013019;28;20402;-68
2023/10/17 10:47:57;;;;;;;13.20;11.77;;;12.80;99.90;;;;;;5031345;28;20516;-69
2023/10/17 10:50:28;;;;;;;13.13;11.70;;;12.80;99.90;;;;;;5014852;28;20457;-70
2023/10/17 10:52:56;;;;;;;13.93;12.30;;;12.50;99.90;;;;;;5015128;28;20413;-70
2023/10/17 10:55:24;;;;;;;14.20;12.70;;;12.20;99.90;;;;;;5014918;28;20558;-69
2023/10/17 10:57:50;;;;;;;13.00;11.23;;;12.10;99.90;;;;;;4997804;28;20489;-69
2023/10/17 11:00:17;;;;;;;14.33;11.60;;;12.50;99.90;;;;;;5032575;28;20504;-70
2023/10/17 11:02:43;;;;;;;15.90;12.70;;;12.30;99.90;;;;;;5013938;28;20440;-69
2023/10/17 11:05:14;;;;;;;15.43;11.90;;;12.40;99.90;;;;;;5013982;28;20434;-70
2023/10/17 11:07:41;;;;;;;13.87;12.33;;;12.40;99.90;;;;;;5032809;28;20551;-70
2023/10/17 11:10:10;;;;;;;13.27;11.97;;;12.60;99.90;;;;;;5032017;28;20480;-71
2023/10/17 11:12:37;;;;;;;15.87;12.07;;;13.10;99.90;;;;;;5031963;28;20418;-70
2023/10/17 11:15:21;;;;;;;13.67;12.37;;;13.00;99.90;;;;;;5032285;28;20431;-71
2023/10/17 11:17:47;;;;;;;13.00;11.70;;;13.10;99.90;;;;;;5032200;28;20428;-69
2023/10/17 11:20:21;;;;;;;12.43;11.23;;;13.50;99.90;;;;;;5031297;28;20897;-70
2023/10/17 11:22:47;;;;;;;15.17;12.50;;;13.20;99.90;;;;;;5032636;28;20209;-68
2023/10/17 11:25:26;;;;;;;13.90;11.77;;;13.00;99.90;;;;;;5032005;28;20488;-69
2023/10/17 11:27:56;;;;;;;13.50;11.33;;;12.90;99.90;;;;;;5032016;28;20373;-69
2023/10/17 11:30:32;;;;;;;13.97;11.40;;;12.80;99.90;;;;;;5031832;28;20457;-69
2023/10/17 11:33:05;;;;;;;13.93;11.27;;;13.00;99.90;;;;;;5031213;28;20396;-68
2023/10/17 11:35:37;;;;;;;14.80;12.60;;;13.00;99.90;;;;;;5030747;28;20921;-69
2023/10/17 11:38:03;;;;;;;12.30;11.00;;;13.00;99.90;;;;;;5030644;28;20443;-69
2023/10/17 11:40:29;;;;;;;12.33;10.47;;;13.30;99.90;;;;;;5013722;28;20419;-69
2023/10/17 11:42:57;;;;;;;12.47;11.30;;;13.90;99.90;;;;;;5030549;28;20442;-70
2023/10/17 11:45:25;;;;;;;11.70;10.50;;;14.20;99.90;;;;;;5014226;28;20403;-69
2023/10/17 11:47:55;;;;;;;12.07;10.30;;;14.60;99.90;;;;;;5032131;28;20433;-69
2023/10/17 11:50:38;;;;;;;14.33;12.00;;;14.10;99.90;;;;;;5030826;28;20480;-70
2023/10/17 11:53:12;;;;;;;14.83;12.73;;;13.50;99.90;;;;;;5030638;28;20394;-69
2023/10/17 11:55:48;;;;;;;13.57;12.17;;;13.40;99.90;;;;;;5014340;28;20406;-69
2023/10/17 11:58:25;;;;;;;12.73;11.43;;;13.50;99.90;;;;;;5030641;28;20451;-69
2023/10/17 12:00:51;;;;;;;12.87;11.67;;;13.40;99.90;;;;;;5030434;28;20409;-69
2023/10/17 12:03:19;;;;;;;47.30;37.27;;;13.50;99.90;;;;;;5014433;28;20524;-69
2023/10/17 12:05:46;;;;;;;13.17;11.80;;;13.70;99.90;;;;;;5031717;28;20493;-68
2023/10/17 12:08:21;;;;;;;32.43;23.10;;;13.70;99.90;;;;;;5014194;28;20471;-69
2023/10/17 12:10:51;;;;;;;16.60;14.57;;;13.70;99.90;;;;;;5013980;28;20448;-69
2023/10/17 12:13:20;;;;;;;15.53;12.87;;;13.70;99.90;;;;;;5013715;28;20806;-70
2023/10/17 12:15:45;;;;;;;14.40;12.47;;;14.10;99.90;;;;;;5031536;28;20411;-69
2023/10/17 12:18:12;;;;;;;13.63;12.23;;;14.10;99.90;;;;;;5031170;28;20434;-68
2023/10/17 12:20:41;;;;;;;13.47;11.93;;;15.00;99.90;;;;;;5014037;28;20546;-69
2023/10/17 12:23:11;;;;;;;14.90;12.70;;;15.30;99.90;;;;;;5014534;28;20409;-69
2023/10/17 12:25:37;;;;;;;12.43;11.23;;;15.90;99.90;;;;;;5031917;28;20523;-69
2023/10/17 12:28:06;;;;;;;12.17;10.73;;;16.80;99.40;;;;;;5031348;28;20472;-72
2023/10/17 12:30:35;;;;;;;18.23;16.43;;;16.90;98.50;;;;;;5032152;28;20210;-70
2023/10/17 12:33:02;;;;;;;26.30;23.53;;;16.50;98.50;;;;;;5001831;28;20932;-69
2023/10/17 12:35:30;;;;;;;20.20;17.50;;;16.40;99.10;;;;;;5017300;28;20412;-70
2023/10/17 12:38:14;;;;;;;13.97;12.57;;;15.30;99.90;;;;;;5035310;28;20452;-69
2023/10/17 12:40:41;;;;;;;11.53;10.43;;;15.70;99.90;;;;;;5034278;28;20870;-69
2023/10/17 12:43:11;;;;;;;14.43;10.80;;;16.00;99.70;;;;;;5033784;28;20499;-69
2023/10/17 12:45:36;;;;;;;13.37;11.43;;;15.70;99.80;;;;;;5034080;28;20406;-69
2023/10/17 12:48:02;;;;;;;11.30;9.80;;;15.40;99.90;;;;;;5035108;28;20842;-69
2023/10/17 12:50:29;;;;;;;13.17;11.77;;;15.50;99.90;;;;;;5035623;28;20293;-69
2023/10/17 12:52:55;;;;;;;11.10;10.10;;;15.50;99.90;;;;;;5035523;28;20227;-69
2023/10/17 12:55:20;;;;;;;12.53;11.43;;;15.30;99.90;;;;;;5016624;28;20404;-70
2023/10/17 12:57:46;;;;;;;12.10;10.23;;;15.20;99.90;;;;;;5035034;28;20696;-69
2023/10/17 13:00:14;;;;;;;13.33;11.80;;;15.10;99.90;;;;;;5000481;28;20236;-69
2023/10/17 13:02:41;;;;;;;13.20;11.10;;;15.00;99.90;;;;;;5034282;28;20939;-69
2023/10/17 13:05:10;;;;;;;11.33;10.23;;;14.90;99.90;;;;;;5034617;28;20435;-68
2023/10/17 13:07:37;;;;;;;12.43;11.23;;;15.10;99.90;;;;;;5033094;28;20419;-69
2023/10/17 13:10:03;;;;;;;11.23;10.10;;;15.00;99.90;;;;;;5033361;28;20904;-70
2023/10/17 13:12:29;;;;;;;14.13;11.43;;;14.80;99.90;;;;;;5017426;28;20907;-69
2023/10/17 13:14:55;;;;;;;11.43;10.20;;;14.40;99.90;;;;;;5016709;28;20510;-68
2023/10/17 13:17:21;;;;;;;13.10;11.20;;;14.60;99.90;;;;;;5033351;28;20267;-69
2023/10/17 13:19:49;;;;;;;11.10;10.00;;;14.50;99.90;;;;;;5033042;28;20178;-70
2023/10/17 13:22:17;;;;;;;11.23;10.10;;;14.20;99.90;;;;;;5033448;28;20423;-69
2023/10/17 13:24:45;;;;;;;10.27;9.30;;;14.00;99.90;;;;;;5034109;28;20470;-68
2023/10/17 13:27:11;;;;;;;12.33;10.73;;;14.20;99.90;;;;;;5017050;28;20418;-69
2023/10/17 13:29:37;;;;;;;12.23;10.90;;;14.30;99.90;;;;;;5033139;28;20808;-69
2023/10/17 13:32:07;;;;;;;11.70;10.60;;;14.30;99.90;;;;;;5032873;28;20406;-67
2023/10/17 13:34:34;;;;;;;11.53;10.33;;;14.20;99.90;;;;;;5032817;28;20207;-70
2023/10/17 13:37:04;;;;;;;10.83;9.87;;;14.50;99.90;;;;;;5016203;28;20806;-69
2023/10/17 13:39:33;;;;;;;11.93;9.80;;;14.50;99.90;;;;;;5032783;28;20420;-70
2023/10/17 13:41:58;;;;;;;11.63;9.90;;;14.50;99.90;;;;;;5015597;28;20412;-70
2023/10/17 13:44:24;;;;;;;11.87;10.60;;;14.60;99.90;;;;;;5015836;28;20416;-70
2023/10/17 13:46:51;;;;;;;10.83;9.63;;;14.80;99.90;;;;;;5032624;28;20220;-70
2023/10/17 13:49:17;;;;;;;11.00;9.90;;;15.00;99.90;;;;;;5033448;28;20208;-70
2023/10/17 13:51:46;;;;;;;10.60;9.50;;;15.10;99.90;;;;;;4999779;28;20939;-69
2023/10/17 13:54:13;;;;;;;11.40;10.17;;;15.20;99.90;;;;;;5032716;28;20415;-70
2023/10/17 13:56:40;;;;;;;12.33;9.60;;;15.10;99.90;;;;;;5015843;28;20796;-70
2023/10/17 13:59:09;;;;;;;16.80;10.87;;;15.00;99.90;;;;;;5033486;28;20965;-70
2023/10/17 14:01:47;;;;;;;11.50;10.40;;;15.00;99.90;;;;;;5032713;28;20409;-70
2023/10/17 14:04:13;;;;;;;10.70;9.63;;;15.20;99.90;;;;;;5030799;23;20546;-69
2023/10/17 14:06:39;;;;;;;12.13;11.03;;;15.40;99.90;;;;;;5051459;28;20433;-70
2023/10/17 14:09:14;;;;;;;13.97;10.53;;;15.50;99.90;;;;;;5050436;28;20174;-70
2023/10/17 14:11:41;;;;;;;11.37;10.20;;;15.50;99.90;;;;;;5050384;28;20417;-69
2023/10/17 14:14:07;;;;;;;11.00;10.07;;;15.10;99.90;;;;;;5050205;28;20401;-71
2023/10/17 14:16:40;;;;;;;12.03;10.90;;;14.80;99.90;;;;;;5033706;28;20424;-70
2023/10/17 14:19:28;;;;;;;13.10;10.53;;;15.00;99.90;;;;;;5033546;28;20155;-70
2023/10/17 14:27:22;;;;;;;14.40;11.53;;;15.30;99.90;;;;;;5035111;28;20390;-70
2023/10/17 14:29:49;;;;;;;11.60;10.40;;;15.10;99.90;;;;;;5033249;28;20442;-70
2023/10/17 14:32:16;;;;;;;12.90;11.53;;;15.20;99.90;;;;;;5033644;28;20471;-70
2023/10/17 14:34:41;;;;;;;13.40;12.03;;;15.10;99.90;;;;;;5033086;28;20445;-70
2023/10/17 14:37:07;;;;;;;11.73;10.53;;;14.90;99.90;;;;;;5033172;28;20497;-70
2023/10/17 14:39:33;;;;;;;11.97;10.83;;;15.00;99.90;;;;;;5033404;28;20181;-69
2023/10/17 14:41:59;;;;;;;11.70;10.30;;;14.90;99.90;;;;;;5033480;28;20414;-70
2023/10/17 14:44:29;;;;;;;13.83;11.37;;;14.90;99.90;;;;;;5033108;28;20984;-70
2023/10/17 14:46:55;;;;;;;12.07;10.87;;;14.80;99.90;;;;;;5032963;28;20424;-70
2023/10/17 14:49:21;;;;;;;14.33;11.90;;;14.70;99.90;;;;;;5032810;28;20413;-70
2023/10/17 14:51:47;;;;;;;11.50;10.17;;;14.60;99.90;;;;;;5032778;28;20725;-70
2023/10/17 14:54:13;;;;;;;11.70;10.60;;;14.70;99.90;;;;;;5032774;28;20481;-69
2023/10/17 14:56:39;;;;;;;11.10;10.03;;;14.70;99.90;;;;;;5033047;28;20414;-70
2023/10/17 14:59:05;;;;;;;13.47;9.73;;;14.80;99.90;;;;;;5033090;28;20175;-70
2023/10/17 15:01:31;;;;;;;11.17;10.03;;;15.10;99.90;;;;;;5033160;28;20777;-70
2023/10/17 15:04:00;;;;;;;12.20;10.90;;;15.20;99.90;;;;;;5032419;28;20167;-71
2023/10/17 15:06:27;;;;;;;13.10;11.20;;;15.00;99.90;;;;;;5033301;28;20445;-70
2023/10/17 15:08:52;;;;;;;9.73;8.80;;;15.00;99.90;;;;;;5032987;28;20418;-70
2023/10/17 15:11:20;;;;;;;10.67;9.67;;;14.70;99.90;;;;;;5032530;28;20441;-70
2023/10/17 15:13:46;;;;;;;10.40;9.43;;;14.50;99.90;;;;;;5033175;28;20265;-70